createdAt,value
2018-11-22T12:17:42.224Z,53.43
2018-11-22T12:20:12.825Z,52.87
2018-11-22T12:22:45.630Z,56.07
2018-11-22T12:25:17.382Z,54.00
2018-11-22T12:27:47.971Z,57.87
2018-11-22T12:30:20.192Z,54.10
2018-11-22T12:32:54.778Z,56.57
2018-11-22T12:35:29.438Z,54.60
2018-11-22T12:38:04.260Z,57.97
2018-11-22T12:40:33.671Z,56.07
2018-11-22T12:43:03.275Z,53.53
2018-11-22T12:45:33.188Z,57.20
2018-11-22T12:48:02.692Z,59.17
2018-11-22T12:50:32.100Z,50.57
2018-11-22T12:53:01.507Z,58.17
2018-11-22T12:55:30.898Z,51.60
2018-11-22T12:58:00.298Z,57.97
2018-11-22T13:00:29.824Z,53.70
2018-11-22T13:02:59.204Z,53.87
2018-11-22T13:05:28.700Z,56.37
2018-11-22T13:07:58.295Z,55.53
2018-11-22T13:10:29.457Z,53.97
2018-11-22T13:12:58.858Z,56.87
2018-11-22T13:15:28.858Z,55.07
2018-11-22T13:17:58.176Z,58.63
2018-11-22T13:20:27.575Z,53.77
2018-11-22T13:22:57.030Z,59.00
2018-11-22T13:25:26.583Z,59.27
2018-11-22T13:27:55.884Z,60.07
2018-11-22T13:30:27.741Z,64.30
2018-11-22T13:32:57.809Z,64.47
2018-11-22T13:35:27.466Z,61.17
2018-11-22T13:37:57.948Z,64.80
2018-11-22T13:40:28.317Z,60.97
2018-11-22T13:42:57.653Z,62.47
2018-11-22T13:45:28.451Z,56.57
2018-11-22T13:47:58.675Z,64.23
2018-11-22T13:50:29.612Z,63.37
2018-11-22T13:53:00.712Z,66.07
2018-11-22T13:55:30.154Z,67.37
2018-11-22T13:57:59.559Z,72.13
2018-11-22T14:00:30.495Z,74.83
2018-11-22T14:03:01.286Z,73.27
2018-11-22T14:05:30.935Z,75.17
2018-11-22T14:08:00.980Z,69.17
2018-11-22T14:10:30.660Z,76.03
2018-11-22T14:12:59.960Z,75.00
2018-11-22T14:15:30.452Z,78.67
2018-11-22T14:18:02.346Z,83.60
2018-11-22T14:20:35.230Z,84.07
2018-11-22T14:23:04.631Z,82.67
2018-11-22T14:25:34.750Z,82.77
2018-11-22T14:28:04.258Z,91.83
2018-11-22T14:30:35.194Z,84.33
2018-11-22T14:33:04.601Z,89.33
2018-11-22T14:35:34.460Z,80.10
2018-11-22T14:38:03.908Z,89.83
2018-11-22T14:40:33.777Z,95.47
2018-11-22T14:43:03.022Z,92.73
2018-11-22T14:45:32.528Z,92.93
2018-11-22T14:48:03.099Z,110.90
2018-11-22T14:50:36.649Z,105.43
2018-11-22T14:53:08.859Z,104.23
2018-11-22T14:55:38.425Z,105.13
2018-11-22T14:58:08.439Z,115.57
2018-11-22T15:00:37.750Z,120.27
2018-11-22T15:03:07.447Z,113.03
2018-11-22T15:05:36.848Z,122.30
2018-11-22T15:08:06.360Z,116.07
2018-11-22T15:10:35.758Z,118.47
2018-11-22T15:13:05.415Z,109.50
2018-11-22T15:15:34.865Z,105.60
2018-11-22T15:18:04.267Z,116.77
2018-11-22T15:20:33.669Z,122.37
2018-11-22T15:23:03.070Z,113.93
2018-11-22T15:25:32.368Z,114.53
2018-11-22T15:28:01.694Z,108.77
2018-11-22T15:30:31.286Z,122.83
2018-11-22T15:33:00.883Z,124.10
2018-11-22T15:35:31.319Z,128.07
2018-11-22T15:38:00.429Z,128.17
2018-11-22T15:40:29.802Z,134.57
2018-11-22T15:43:00.747Z,150.97
2018-11-22T15:45:35.356Z,137.70
2018-11-22T15:48:00.164Z,134.57
2018-11-22T15:50:30.278Z,122.77
2018-11-22T15:52:59.685Z,114.87
2018-11-22T15:55:29.284Z,121.97
2018-11-22T15:57:59.926Z,129.97
2018-11-22T16:00:31.261Z,128.20
2018-11-22T16:03:01.174Z,136.07
2018-11-22T16:05:31.530Z,128.80
2018-11-22T16:08:01.515Z,131.70
2018-11-22T16:10:32.603Z,129.77
2018-11-22T16:13:07.326Z,126.40
2018-11-22T16:15:41.459Z,142.77
2018-11-22T16:18:10.947Z,119.53
2018-11-22T16:20:40.502Z,132.00
2018-11-22T16:23:10.114Z,134.10
2018-11-22T16:25:39.756Z,130.30
2018-11-22T16:28:09.789Z,120.67
2018-11-22T16:30:40.773Z,116.27
2018-11-22T16:33:10.891Z,114.50
2018-11-22T16:35:40.291Z,118.33
2018-11-22T16:38:10.104Z,130.07
2018-11-22T16:40:39.447Z,126.00
2018-11-22T16:43:09.212Z,119.20
2018-11-22T16:45:39.124Z,124.20
2018-11-22T16:48:12.139Z,134.20
2018-11-22T16:50:43.852Z,131.97
2018-11-22T16:53:13.585Z,131.50
2018-11-22T16:55:43.729Z,126.07
2018-11-22T16:58:13.305Z,111.83
2018-11-22T17:00:42.612Z,120.17
2018-11-22T17:03:13.613Z,111.17
2018-11-22T17:05:43.941Z,123.77
2018-11-22T17:08:13.452Z,114.47
2018-11-22T17:10:43.084Z,119.47
2018-11-22T17:13:12.680Z,121.43
2018-11-22T17:15:42.908Z,131.93
2018-11-22T17:18:12.734Z,127.13
2018-11-22T17:20:42.422Z,119.23
2018-11-22T17:23:12.028Z,113.70
2018-11-22T17:25:41.384Z,121.80
2018-11-22T17:28:11.649Z,119.37
2018-11-22T17:30:42.904Z,122.80
2018-11-22T17:33:12.296Z,119.33
2018-11-22T17:35:42.416Z,111.73
2018-11-22T17:38:12.748Z,114.57
2018-11-22T17:40:46.967Z,109.43
2018-11-22T17:43:16.680Z,119.23
2018-11-22T17:45:47.408Z,118.83
2018-11-22T17:48:17.342Z,111.30
2018-11-22T17:50:47.743Z,116.07
2018-11-22T17:53:17.135Z,115.20
2018-11-22T17:55:46.871Z,109.27
2018-11-22T17:58:16.759Z,126.27
2018-11-22T18:00:50.312Z,125.47
2018-11-22T18:03:20.176Z,118.27
2018-11-22T18:05:50.096Z,127.87
2018-11-22T18:08:19.640Z,117.97
2018-11-22T18:10:49.089Z,125.13
2018-11-22T18:13:18.552Z,125.10
2018-11-22T18:15:53.321Z,125.20
2018-11-22T18:18:22.740Z,124.80
2018-11-22T18:20:52.225Z,132.87
2018-11-22T18:23:21.729Z,133.90
2018-11-22T18:25:51.030Z,144.43
2018-11-22T18:28:20.434Z,162.40
2018-11-22T18:30:49.832Z,160.67
2018-11-22T18:33:19.336Z,151.90
2018-11-22T18:35:48.666Z,183.07
2018-11-22T18:38:18.036Z,169.87
2018-11-22T18:40:47.493Z,187.33
2018-11-22T18:43:16.946Z,196.80
2018-11-22T18:45:47.059Z,177.20
2018-11-22T18:48:17.589Z,184.37
2018-11-22T18:50:47.159Z,327.40
2018-11-22T18:53:16.519Z,197.13
2018-11-22T18:55:45.794Z,210.40
2018-11-22T18:58:15.196Z,192.30
2018-11-22T19:00:45.829Z,153.10
2018-11-22T19:03:16.864Z,298.13
2018-11-22T19:05:46.165Z,275.00
2018-11-22T19:08:16.493Z,217.83
2018-11-22T19:10:45.993Z,183.20
2018-11-22T19:13:15.817Z,328.97
2018-11-22T19:15:47.987Z,288.37
2018-11-22T19:18:17.949Z,351.80
2018-11-22T19:20:47.826Z,263.13
2018-11-22T19:23:17.737Z,390.93
2018-11-22T19:25:47.043Z,287.73
2018-11-22T19:28:16.337Z,209.30
2018-11-22T19:30:47.044Z,378.23
2018-11-22T19:33:17.977Z,562.57
2018-11-22T19:35:50.154Z,617.00
2018-11-22T19:38:19.548Z,590.87
2018-11-22T19:40:49.051Z,543.97
2018-11-22T19:43:18.501Z,524.17
2018-11-22T19:45:48.983Z,339.53
2018-11-22T19:48:18.385Z,206.83
2018-11-22T19:50:47.808Z,188.60
2018-11-22T19:53:18.109Z,348.63
2018-11-22T19:55:47.577Z,236.00
2018-11-22T19:58:17.730Z,400.27
2018-11-22T20:00:47.131Z,224.83
2018-11-22T20:03:16.534Z,230.30
2018-11-22T20:05:45.948Z,224.83
2018-11-22T20:08:17.179Z,146.57
2018-11-22T20:10:47.092Z,199.00
2018-11-22T20:13:22.127Z,165.13
2018-11-22T20:15:51.528Z,195.17
2018-11-22T20:18:20.930Z,247.20
2018-11-22T20:20:50.276Z,292.57
2018-11-22T20:23:21.926Z,247.83
2018-11-22T20:25:49.134Z,288.03
2018-11-22T20:28:18.628Z,365.77
2018-11-22T20:30:48.141Z,227.60
2018-11-22T20:33:17.545Z,300.10
2018-11-22T20:35:47.122Z,195.43
2018-11-22T20:38:16.757Z,195.80
2018-11-22T20:40:46.394Z,278.50
2018-11-22T20:43:15.969Z,376.73
2018-11-22T20:45:45.375Z,298.63
2018-11-22T20:48:14.773Z,318.70
2018-11-22T20:50:44.639Z,255.43
2018-11-22T20:53:14.395Z,276.73
2018-11-22T20:55:43.797Z,352.47
2018-11-22T20:58:13.922Z,302.07
2018-11-22T21:00:43.318Z,357.13
2018-11-22T21:03:12.820Z,316.73
2018-11-22T21:05:43.147Z,261.37
2018-11-22T21:08:12.548Z,240.60
2018-11-22T21:10:41.949Z,243.27
2018-11-22T21:13:11.348Z,327.63
2018-11-22T21:15:40.853Z,487.83
2018-11-22T21:18:10.255Z,363.60
2018-11-22T21:20:41.191Z,308.73
2018-11-22T21:23:10.599Z,445.80
2018-11-22T21:25:39.995Z,585.70
2018-11-22T21:28:09.321Z,539.70
2018-11-22T21:30:39.822Z,388.70
2018-11-22T21:33:09.374Z,616.97
2018-11-22T21:35:38.728Z,228.20
2018-11-22T21:38:08.748Z,309.50
2018-11-22T21:40:38.046Z,343.93
2018-11-22T21:43:07.556Z,167.07
2018-11-22T21:45:36.955Z,186.03
2018-11-22T21:48:06.572Z,203.67
2018-11-22T21:50:36.059Z,190.30
2018-11-22T21:53:05.688Z,165.70
2018-11-22T21:55:34.938Z,208.17
2018-11-22T21:58:04.591Z,405.80
2018-11-22T22:00:36.763Z,172.90
2018-11-22T22:03:07.677Z,308.23
2018-11-22T22:05:37.184Z,155.43
2018-11-22T22:08:07.194Z,183.67
2018-11-22T22:10:36.596Z,217.63
2018-11-22T22:13:06.163Z,297.53
2018-11-22T22:15:36.344Z,179.27
2018-11-22T22:18:06.596Z,222.20
2018-11-22T22:20:36.815Z,217.87
2018-11-22T22:23:07.145Z,227.20
2018-11-22T22:25:35.873Z,286.33
2018-11-22T22:28:05.479Z,374.27
2018-11-22T22:30:35.504Z,269.67
2018-11-22T22:33:06.315Z,230.53
2018-11-22T22:35:35.836Z,315.67
2018-11-22T22:38:05.240Z,340.10
2018-11-22T22:40:34.846Z,498.00
2018-11-22T22:43:04.352Z,280.13
2018-11-22T22:45:34.447Z,330.97
2018-11-22T22:48:04.276Z,220.47
2018-11-22T22:50:34.085Z,355.27
2018-11-22T22:53:03.593Z,400.67
2018-11-22T22:55:33.096Z,362.20
2018-11-22T22:58:02.498Z,255.50
2018-11-22T23:00:41.321Z,420.40
2018-11-22T23:03:10.825Z,269.80
2018-11-22T23:05:40.227Z,356.30
2018-11-22T23:08:09.633Z,170.33
2018-11-22T23:10:39.028Z,269.27
2018-11-22T23:13:08.840Z,415.97
2018-11-22T23:15:38.243Z,352.73
2018-11-22T23:18:07.643Z,304.63
2018-11-22T23:20:37.969Z,311.50
2018-11-22T23:23:07.368Z,388.73
2018-11-22T23:25:36.672Z,305.87
2018-11-22T23:28:06.070Z,319.37
2018-11-22T23:30:36.142Z,277.30
2018-11-22T23:33:06.820Z,279.57
2018-11-22T23:35:36.425Z,314.13
2018-11-22T23:38:05.827Z,365.43
2018-11-22T23:40:35.691Z,401.27
2018-11-22T23:43:06.176Z,375.93
2018-11-22T23:45:34.954Z,436.87
2018-11-22T23:48:04.456Z,363.27
2018-11-22T23:50:34.375Z,352.53
2018-11-22T23:53:05.000Z,397.03
2018-11-22T23:55:34.402Z,366.27
2018-11-22T23:58:03.804Z,364.43
